Leander — DD5959 — position and weather

sailwx.info

Track history (hours):
 
Tides and Currents Weather Stations Pressure Air Temp Water Temp Dewpoint Dewpoint Depression Visibility Wind Speed Wind Dir Waves Ship Positions

Leander

Last reported at 2016-May-23 23:15 UTC. Time now 2016-May-30 16:31 UTC.
Position N 54°40' E 012°43'.

Length 15 m.

Type: Sailing vessel. MMSI: 211480070.

Date/timePositionNaut miles runAvg speedWind from/ knotsBaromVisibWave heightAir tempDewpointWater temp
2016-May-23 23:15N 54°40' E 012°43'13 7.6
2016-May-23 21:33N 54°34' E 012°24'6 5.0
2016-May-23 20:27N 54°31' E 012°15'6 6.5
2016-May-23 19:28N 54°30' E 012°05'5 5.5
2016-May-23 18:32N 54°29' E 011°56'6 6.4
2016-May-23 17:33N 54°30' E 011°45'6 5.6
2016-May-23 16:33N 54°31' E 011°36'5 4.6
2016-May-23 15:33N 54°33' E 011°28'6 5.6
2016-May-23 14:33N 54°35' E 011°19'6 5.6
2016-May-23 13:33N 54°34' E 011°09'8 7.7
2016-May-23 12:33N 54°33' E 010°56'6 6.1
2016-May-23 11:33N 54°32' E 010°46'5 4.4
2016-May-23 10:31N 54°30' E 010°39'6 6.1
2016-May-23 09:33N 54°29' E 010°29'6 5.8
2016-May-23 08:33N 54°27' E 010°20'5 4.5
2016-May-23 07:31N 54°24' E 010°13'0 0.0
2016-May-22 16:18N 54°24' E 010°13'2 2.1
2016-May-22 15:33N 54°23' E 010°11'2 2.3
2016-May-22 14:32N 54°22' E 010°07'6 5.6
2016-May-22 13:33N 54°21' E 009°58'29 1.3
2016-May-21 14:31N 54°03' E 009°18'6 6.1
2016-May-21 13:33N 53°57' E 009°15'5 4.1
2016-May-21 12:17N 53°54' E 009°09'1 0.7
2016-May-21 11:33N 53°53' E 009°09'2 1.9
2016-May-21 10:32N 53°53' E 009°06'8 8.0
2016-May-21 09:34N 53°51' E 008°53'7 6.8
2016-May-21 08:31N 53°53' E 008°42'7 7.6
2016-May-21 07:32N 53°58' E 008°32'8 7.8
2016-May-21 06:33N 53°59' E 008°19'8 7.8
2016-May-21 05:33N 53°58' E 008°06'6 6.4
2016-May-21 04:33N 53°56' E 007°56'6 5.2
2016-May-21 03:30N 53°54' E 007°47'5 5.1
2016-May-21 02:33N 53°53' E 007°39'5 5.2
2016-May-21 01:34N 53°51' E 007°31'6 6.1
2016-May-21 00:33N 53°50' E 007°21'6 6.3
2016-May-20 23:33N 53°48' E 007°11'7 6.6
2016-May-20 22:33N 53°46' E 007°00'7 6.8
2016-May-20 21:33N 53°44' E 006°49'7 7.1
2016-May-20 20:33N 53°42' E 006°38'7 7.5
2016-May-20 19:33N 53°40' E 006°25'8 7.9
2016-May-20 18:33N 53°38' E 006°13'8 7.6
2016-May-20 17:34N 53°36' E 006°00'6 6.0
2016-May-20 16:33N 53°34' E 005°51'6 5.8
2016-May-20 15:32N 53°33' E 005°41'5 5.0
2016-May-20 14:33N 53°32' E 005°33'5 5.4
2016-May-20 13:33N 53°30' E 005°24'5 5.2
2016-May-20 12:33N 53°28' E 005°16'6 5.6
2016-May-20 11:32N 53°26' E 005°07'151 6.7
2016-May-19 13:05N 51°40' E 002°11'4 7.6
2016-May-19 12:32N 51°37' E 002°06'8 7.6
2016-May-19 11:33N 51°31' E 001°59'7 7.0
2016-May-19 10:33N 51°25' E 001°52'7 6.5
2016-May-19 09:33N 51°20' E 001°45'6 6.0
2016-May-19 08:33N 51°16' E 001°39'4 4.5
2016-May-19 07:33N 51°12' E 001°34'4 4.1
2016-May-19 06:33N 51°09' E 001°30'5 4.9
2016-May-19 05:32N 51°06' E 001°24'5 4.7
2016-May-19 04:33N 51°03' E 001°18'38 6.0
2016-May-18 22:07N 50°42' E 000°27'5 6.0
2016-May-18 21:19N 50°41' E 000°20'4 5.9
2016-May-18 20:33N 50°39' E 000°13'7 7.4
2016-May-18 19:33N 50°36' E 000°03'9 8.8
2016-May-18 18:30N 50°33' W 000°11'206 6.9
2016-May-17 12:32N 48°39' W 004°36'7 6.7
2016-May-17 11:33N 48°36' W 004°44'7 7.0
2016-May-17 10:33N 48°30' W 004°50'7 7.0
2016-May-17 09:33N 48°23' W 004°49'6 5.8
2016-May-17 08:33N 48°19' W 004°42'6 5.9
2016-May-17 07:33N 48°21' W 004°34'4 0.1
2016-May-15 17:31N 48°23' W 004°29'0 0.0
2016-May-15 16:31N 48°23' W 004°29'0 0.1
2016-May-15 15:31N 48°23' W 004°29'0 0.1
2016-May-15 14:33N 48°23' W 004°30'5 5.1
2016-May-15 13:33N 48°19' W 004°36'6 5.9
2016-May-15 12:33N 48°15' W 004°41'6 6.2
2016-May-15 11:33N 48°09' W 004°44'7 7.0
2016-May-15 10:33N 48°02' W 004°47'  
Track history (hours):
 
Tides and Currents Weather Stations Pressure Air Temp Water Temp Dewpoint Dewpoint Depression Visibility Wind Speed Wind Dir Waves Ship Positions

Leander

Last reported at 2016-May-23 23:15 UTC. Time now 2016-May-30 16:31 UTC.
Position N 54°40' E 012°43'.

Length 15 m.

Type: Sailing vessel. MMSI: 211480070.

Date/timePositionNaut miles runAvg speedWind from/ knotsBaromVisibWave heightAir tempDewpointWater temp
2016-May-23 23:15N 54°40' E 012°43'13 7.6
2016-May-23 21:33N 54°34' E 012°24'6 5.0
2016-May-23 20:27N 54°31' E 012°15'6 6.5
2016-May-23 19:28N 54°30' E 012°05'5 5.5
2016-May-23 18:32N 54°29' E 011°56'6 6.4
2016-May-23 17:33N 54°30' E 011°45'6 5.6
2016-May-23 16:33N 54°31' E 011°36'5 4.6
2016-May-23 15:33N 54°33' E 011°28'6 5.6
2016-May-23 14:33N 54°35' E 011°19'6 5.6
2016-May-23 13:33N 54°34' E 011°09'8 7.7
2016-May-23 12:33N 54°33' E 010°56'6 6.1
2016-May-23 11:33N 54°32' E 010°46'5 4.4
2016-May-23 10:31N 54°30' E 010°39'6 6.1
2016-May-23 09:33N 54°29' E 010°29'6 5.8
2016-May-23 08:33N 54°27' E 010°20'5 4.5
2016-May-23 07:31N 54°24' E 010°13'0 0.0
2016-May-22 16:18N 54°24' E 010°13'2 2.1
2016-May-22 15:33N 54°23' E 010°11'2 2.3
2016-May-22 14:32N 54°22' E 010°07'6 5.6
2016-May-22 13:33N 54°21' E 009°58'29 1.3
2016-May-21 14:31N 54°03' E 009°18'6 6.1
2016-May-21 13:33N 53°57' E 009°15'5 4.1
2016-May-21 12:17N 53°54' E 009°09'1 0.7
2016-May-21 11:33N 53°53' E 009°09'2 1.9
2016-May-21 10:32N 53°53' E 009°06'8 8.0
2016-May-21 09:34N 53°51' E 008°53'7 6.8
2016-May-21 08:31N 53°53' E 008°42'7 7.6
2016-May-21 07:32N 53°58' E 008°32'8 7.8
2016-May-21 06:33N 53°59' E 008°19'8 7.8
2016-May-21 05:33N 53°58' E 008°06'6 6.4
2016-May-21 04:33N 53°56' E 007°56'6 5.2
2016-May-21 03:30N 53°54' E 007°47'5 5.1
2016-May-21 02:33N 53°53' E 007°39'5 5.2
2016-May-21 01:34N 53°51' E 007°31'6 6.1
2016-May-21 00:33N 53°50' E 007°21'6 6.3
2016-May-20 23:33N 53°48' E 007°11'7 6.6
2016-May-20 22:33N 53°46' E 007°00'7 6.8
2016-May-20 21:33N 53°44' E 006°49'7 7.1
2016-May-20 20:33N 53°42' E 006°38'7 7.5
2016-May-20 19:33N 53°40' E 006°25'8 7.9
2016-May-20 18:33N 53°38' E 006°13'8 7.6
2016-May-20 17:34N 53°36' E 006°00'6 6.0
2016-May-20 16:33N 53°34' E 005°51'6 5.8
2016-May-20 15:32N 53°33' E 005°41'5 5.0
2016-May-20 14:33N 53°32' E 005°33'5 5.4
2016-May-20 13:33N 53°30' E 005°24'5 5.2
2016-May-20 12:33N 53°28' E 005°16'6 5.6
2016-May-20 11:32N 53°26' E 005°07'151 6.7
2016-May-19 13:05N 51°40' E 002°11'4 7.6
2016-May-19 12:32N 51°37' E 002°06'8 7.6
2016-May-19 11:33N 51°31' E 001°59'7 7.0
2016-May-19 10:33N 51°25' E 001°52'7 6.5
2016-May-19 09:33N 51°20' E 001°45'6 6.0
2016-May-19 08:33N 51°16' E 001°39'4 4.5
2016-May-19 07:33N 51°12' E 001°34'4 4.1
2016-May-19 06:33N 51°09' E 001°30'5 4.9
2016-May-19 05:32N 51°06' E 001°24'5 4.7
2016-May-19 04:33N 51°03' E 001°18'38 6.0
2016-May-18 22:07N 50°42' E 000°27'5 6.0
2016-May-18 21:19N 50°41' E 000°20'4 5.9
2016-May-18 20:33N 50°39' E 000°13'7 7.4
2016-May-18 19:33N 50°36' E 000°03'9 8.8
2016-May-18 18:30N 50°33' W 000°11'206 6.9
2016-May-17 12:32N 48°39' W 004°36'7 6.7
2016-May-17 11:33N 48°36' W 004°44'7 7.0
2016-May-17 10:33N 48°30' W 004°50'7 7.0
2016-May-17 09:33N 48°23' W 004°49'6 5.8
2016-May-17 08:33N 48°19' W 004°42'6 5.9
2016-May-17 07:33N 48°21' W 004°34'4 0.1
2016-May-15 17:31N 48°23' W 004°29'0 0.0
2016-May-15 16:31N 48°23' W 004°29'0 0.1
2016-May-15 15:31N 48°23' W 004°29'0 0.1
2016-May-15 14:33N 48°23' W 004°30'5 5.1
2016-May-15 13:33N 48°19' W 004°36'6 5.9
2016-May-15 12:33N 48°15' W 004°41'6 6.2
2016-May-15 11:33N 48°09' W 004°44'7 7.0
2016-May-15 10:33N 48°02' W 004°47'  

Dump ship's entire track history